sensor_id;sensor_type;location;lat;lon;timestamp;temperature;humidity
23149;DHT22;11743;51.228;22.498;2023-02-01T00:00:04;0.50;99.90
23149;DHT22;11743;51.228;22.498;2023-02-01T00:00:26;0.60;99.90
23149;DHT22;11743;51.228;22.498;2023-02-01T00:00:48;0.60;99.90
23149;DHT22;11743;51.228;22.498;2023-02-01T00:01:10;0.50;99.90
23149;DHT22;11743;51.228;22.498;2023-02-01T00:01:32;0.50;99.90
23149;DHT22;11743;51.228;22.498;2023-02-01T00:01:55;0.50;99.90
23149;DHT22;11743;51.228;22.498;2023-02-01T00:02:17;0.50;99.90
23149;DHT22;11743;51.228;22.498;2023-02-01T00:02:38;0.50;99.90
23149;DHT22;11743;51.228;22.498;2023-02-01T00:03:02;0.50;99.90
23149;DHT22;11743;51.228;22.498;2023-02-01T00:03:24;0.50;99.90
23149;DHT22;11743;51.228;22.498;2023-02-01T00:03:46;0.50;99.90
23149;DHT22;11743;51.228;22.498;2023-02-01T00:04:08;0.50;99.90
23149;DHT22;11743;51.228;22.498;2023-02-01T00:04:30;0.50;99.90
23149;DHT22;11743;51.228;22.498;2023-02-01T00:04:52;0.50;99.90
23149;DHT22;11743;51.228;22.498;2023-02-01T00:05:14;0.60;99.90
23149;DHT22;11743;51.228;22.498;2023-02-01T00:05:36;0.60;99.90
23149;DHT22;11743;51.228;22.498;2023-02-01T00:05:59;0.50;99.90
23149;DHT22;11743;51.228;22.498;2023-02-01T00:06:21;0.50;99.90
23149;DHT22;11743;51.228;22.498;2023-02-01T00:06:43;0.60;99.90
23149;DHT22;11743;51.228;22.498;2023-02-01T00:07:05;0.60;99.90
23149;DHT22;11743;51.228;22.498;2023-02-01T00:07:27;0.50;99.90
23149;DHT22;11743;51.228;22.498;2023-02-01T00:07:49;0.50;99.90
23149;DHT22;11743;51.228;22.498;2023-02-01T00:08:11;0.60;99.90
23149;DHT22;11743;51.228;22.498;2023-02-01T00:08:33;0.60;99.90
23149;DHT22;11743;51.228;22.498;2023-02-01T00:08:56;0.60;99.90
23149;DHT22;11743;51.228;22.498;2023-02-01T00:09:18;0.60;99.90
23149;DHT22;11743;51.228;22.498;2023-02-01T00:09:40;0.60;99.90
23149;DHT22;11743;51.228;22.498;2023-02-01T00:10:03;0.50;99.90
23149;DHT22;11743;51.228;22.498;2023-02-01T00:10:25;0.60;99.90
23149;DHT22;11743;51.228;22.498;2023-02-01T00:10:47;0.50;99.90
23149;DHT22;11743;51.228;22.498;2023-02-01T00:11:11;0.50;99.90
23149;DHT22;11743;51.228;22.498;2023-02-01T00:11:33;0.50;99.90
23149;DHT22;11743;51.228;22.498;2023-02-01T00:11:55;0.50;99.90
23149;DHT22;11743;51.228;22.498;2023-02-01T00:12:20;1.60;99.90
23149;DHT22;11743;51.228;22.498;2023-02-01T00:12:42;0.50;99.90
23149;DHT22;11743;51.228;22.498;2023-02-01T00:13:04;0.50;99.90
23149;DHT22;11743;51.228;22.498;2023-02-01T00:13:31;0.50;99.90
23149;DHT22;11743;51.228;22.498;2023-02-01T00:13:53;0.50;99.90
23149;DHT22;11743;51.228;22.498;2023-02-01T00:14:15;0.50;99.90
23149;DHT22;11743;51.228;22.498;2023-02-01T00:14:37;0.50;99.90
23149;DHT22;11743;51.228;22.498;2023-02-01T00:15:01;0.50;99.90
23149;DHT22;11743;51.228;22.498;2023-02-01T00:15:22;0.50;99.90
23149;DHT22;11743;51.228;22.498;2023-02-01T00:15:44;0.50;99.90
23149;DHT22;11743;51.228;22.498;2023-02-01T00:16:19;0.50;99.90
23149;DHT22;11743;51.228;22.498;2023-02-01T00:16:41;0.50;99.90
23149;DHT22;11743;51.228;22.498;2023-02-01T00:17:03;0.50;99.90
23149;DHT22;11743;51.228;22.498;2023-02-01T00:17:25;0.50;99.90
23149;DHT22;11743;51.228;22.498;2023-02-01T00:17:54;0.50;99.90
23149;DHT22;11743;51.228;22.498;2023-02-01T00:18:16;0.50;99.90
23149;DHT22;11743;51.228;22.498;2023-02-01T00:18:38;0.50;99.90
23149;DHT22;11743;51.228;22.498;2023-02-01T00:19:13;0.50;99.90
23149;DHT22;11743;51.228;22.498;2023-02-01T00:19:36;0.40;99.90
23149;DHT22;11743;51.228;22.498;2023-02-01T00:19:58;0.40;99.90
23149;DHT22;11743;51.228;22.498;2023-02-01T00:20:20;0.40;99.90
23149;DHT22;11743;51.228;22.498;2023-02-01T00:20:46;0.40;99.90
23149;DHT22;11743;51.228;22.498;2023-02-01T00:21:11;0.40;99.90
23149;DHT22;11743;51.228;22.498;2023-02-01T00:21:34;0.40;99.90
23149;DHT22;11743;51.228;22.498;2023-02-01T00:21:55;0.40;99.90
23149;DHT22;11743;51.228;22.498;2023-02-01T00:22:17;0.40;99.90
23149;DHT22;11743;51.228;22.498;2023-02-01T00:22:39;0.40;99.90
23149;DHT22;11743;51.228;22.498;2023-02-01T00:23:01;0.40;99.90
23149;DHT22;11743;51.228;22.498;2023-02-01T00:23:23;0.40;99.90
23149;DHT22;11743;51.228;22.498;2023-02-01T00:23:45;0.40;99.90
23149;DHT22;11743;51.228;22.498;2023-02-01T00:24:09;0.40;99.90
23149;DHT22;11743;51.228;22.498;2023-02-01T00:24:31;0.40;99.90
23149;DHT22;11743;51.228;22.498;2023-02-01T00:24:53;0.40;99.90
23149;DHT22;11743;51.228;22.498;2023-02-01T00:25:15;0.40;99.90
23149;DHT22;11743;51.228;22.498;2023-02-01T00:25:37;0.40;99.90
23149;DHT22;11743;51.228;22.498;2023-02-01T00:26:01;0.40;99.90
23149;DHT22;11743;51.228;22.498;2023-02-01T00:26:33;0.40;99.90
23149;DHT22;11743;51.228;22.498;2023-02-01T00:26:55;0.40;99.90
23149;DHT22;11743;51.228;22.498;2023-02-01T00:27:17;0.40;99.90
23149;DHT22;11743;51.228;22.498;2023-02-01T00:27:41;0.40;99.90
23149;DHT22;11743;51.228;22.498;2023-02-01T00:28:06;0.40;99.90
23149;DHT22;11743;51.228;22.498;2023-02-01T00:28:28;0.40;99.90
23149;DHT22;11743;51.228;22.498;2023-02-01T00:28:50;0.40;99.90
23149;DHT22;11743;51.228;22.498;2023-02-01T00:29:15;0.40;99.90
23149;DHT22;11743;51.228;22.498;2023-02-01T00:29:39;0.40;99.90
23149;DHT22;11743;51.228;22.498;2023-02-01T00:30:00;0.40;99.90
23149;DHT22;11743;51.228;22.498;2023-02-01T00:30:22;0.40;99.90
23149;DHT22;11743;51.228;22.498;2023-02-01T00:30:44;0.40;99.90
23149;DHT22;11743;51.228;22.498;2023-02-01T00:31:07;0.40;99.90
23149;DHT22;11743;51.228;22.498;2023-02-01T00:31:29;0.40;99.90
23149;DHT22;11743;51.228;22.498;2023-02-01T00:31:51;0.40;99.90
23149;DHT22;11743;51.228;22.498;2023-02-01T00:32:14;0.40;99.90
23149;DHT22;11743;51.228;22.498;2023-02-01T00:32:35;0.40;99.90
23149;DHT22;11743;51.228;22.498;2023-02-01T00:32:57;0.40;99.90
23149;DHT22;11743;51.228;22.498;2023-02-01T00:33:19;0.40;99.90
23149;DHT22;11743;51.228;22.498;2023-02-01T00:33:41;0.40;99.90
23149;DHT22;11743;51.228;22.498;2023-02-01T00:34:03;0.40;99.90
23149;DHT22;11743;51.228;22.498;2023-02-01T00:34:25;0.40;99.90
23149;DHT22;11743;51.228;22.498;2023-02-01T00:34:47;0.40;99.90
23149;DHT22;11743;51.228;22.498;2023-02-01T00:35:09;0.40;99.90
23149;DHT22;11743;51.228;22.498;2023-02-01T00:35:34;0.40;99.90
23149;DHT22;11743;51.228;22.498;2023-02-01T00:36:00;0.40;99.90
23149;DHT22;11743;51.228;22.498;2023-02-01T00:36:22;0.40;99.90
23149;DHT22;11743;51.228;22.498;2023-02-01T00:36:44;0.40;99.90
23149;DHT22;11743;51.228;22.498;2023-02-01T00:37:07;0.40;99.90
23149;DHT22;11743;51.228;22.498;2023-02-01T00:37:29;0.40;99.90
23149;DHT22;11743;51.228;22.498;2023-02-01T00:37:50;0.40;99.90
23149;DHT22;11743;51.228;22.498;2023-02-01T00:38:12;0.40;99.90
23149;DHT22;11743;51.228;22.498;2023-02-01T00:38:37;0.40;99.90
23149;DHT22;11743;51.228;22.498;2023-02-01T00:38:59;0.40;99.90
23149;DHT22;11743;51.228;22.498;2023-02-01T00:39:21;0.50;99.90
23149;DHT22;11743;51.228;22.498;2023-02-01T00:39:43;0.50;99.90
23149;DHT22;11743;51.228;22.498;2023-02-01T00:40:05;0.50;99.90
23149;DHT22;11743;51.228;22.498;2023-02-01T00:40:28;0.50;99.90
23149;DHT22;11743;51.228;22.498;2023-02-01T00:40:49;0.50;99.90
23149;DHT22;11743;51.228;22.498;2023-02-01T00:41:16;0.50;99.90
23149;DHT22;11743;51.228;22.498;2023-02-01T00:41:39;0.50;99.90
23149;DHT22;11743;51.228;22.498;2023-02-01T00:42:01;0.50;99.90
23149;DHT22;11743;51.228;22.498;2023-02-01T00:42:23;0.50;99.90
23149;DHT22;11743;51.228;22.498;2023-02-01T00:42:45;0.50;99.90
23149;DHT22;11743;51.228;22.498;2023-02-01T00:43:07;0.50;99.90
23149;DHT22;11743;51.228;22.498;2023-02-01T00:43:31;0.50;99.90
23149;DHT22;11743;51.228;22.498;2023-02-01T00:43:53;0.50;99.90
23149;DHT22;11743;51.228;22.498;2023-02-01T00:44:15;0.50;99.90
23149;DHT22;11743;51.228;22.498;2023-02-01T00:44:37;0.50;99.90
23149;DHT22;11743;51.228;22.498;2023-02-01T00:44:59;0.50;99.90
23149;DHT22;11743;51.228;22.498;2023-02-01T00:45:24;0.50;99.90
23149;DHT22;11743;51.228;22.498;2023-02-01T00:45:46;0.50;99.90
23149;DHT22;11743;51.228;22.498;2023-02-01T00:46:09;0.50;99.90
23149;DHT22;11743;51.228;22.498;2023-02-01T00:46:32;0.60;99.90
23149;DHT22;11743;51.228;22.498;2023-02-01T00:46:54;0.60;99.90
23149;DHT22;11743;51.228;22.498;2023-02-01T00:47:16;0.60;99.90
23149;DHT22;11743;51.228;22.498;2023-02-01T00:47:37;0.60;99.90
23149;DHT22;11743;51.228;22.498;2023-02-01T00:47:59;0.60;99.90
23149;DHT22;11743;51.228;22.498;2023-02-01T00:48:21;0.60;99.90
23149;DHT22;11743;51.228;22.498;2023-02-01T00:48:43;0.60;99.90
23149;DHT22;11743;51.228;22.498;2023-02-01T00:49:05;0.60;99.90
23149;DHT22;11743;51.228;22.498;2023-02-01T00:49:31;0.60;99.90
23149;DHT22;11743;51.228;22.498;2023-02-01T00:49:54;0.60;99.90
23149;DHT22;11743;51.228;22.498;2023-02-01T00:50:15;0.60;99.90
23149;DHT22;11743;51.228;22.498;2023-02-01T00:50:44;0.60;99.90
23149;DHT22;11743;51.228;22.498;2023-02-01T00:51:09;0.60;99.90
23149;DHT22;11743;51.228;22.498;2023-02-01T00:51:32;0.60;99.90
23149;DHT22;11743;51.228;22.498;2023-02-01T00:51:54;0.60;99.90
23149;DHT22;11743;51.228;22.498;2023-02-01T00:52:16;0.70;99.90
23149;DHT22;11743;51.228;22.498;2023-02-01T00:52:38;0.70;99.90
23149;DHT22;11743;51.228;22.498;2023-02-01T00:53:00;0.60;99.90
23149;DHT22;11743;51.228;22.498;2023-02-01T00:53:22;0.70;99.90
23149;DHT22;11743;51.228;22.498;2023-02-01T00:53:46;0.70;99.90
23149;DHT22;11743;51.228;22.498;2023-02-01T00:54:08;0.70;99.90
23149;DHT22;11743;51.228;22.498;2023-02-01T00:54:30;0.70;99.90
23149;DHT22;11743;51.228;22.498;2023-02-01T00:54:52;0.70;99.90
23149;DHT22;11743;51.228;22.498;2023-02-01T00:55:14;0.70;99.90
23149;DHT22;11743;51.228;22.498;2023-02-01T00:55:35;0.70;99.90
23149;DHT22;11743;51.228;22.498;2023-02-01T00:55:57;0.70;99.90
23149;DHT22;11743;51.228;22.498;2023-02-01T00:56:19;0.70;99.90
23149;DHT22;11743;51.228;22.498;2023-02-01T00:56:41;0.70;99.90
23149;DHT22;11743;51.228;22.498;2023-02-01T00:57:03;0.70;99.90
23149;DHT22;11743;51.228;22.498;2023-02-01T00:57:25;0.70;99.90
23149;DHT22;11743;51.228;22.498;2023-02-01T00:57:47;0.70;99.90
23149;DHT22;11743;51.228;22.498;2023-02-01T00:58:09;0.70;99.90
23149;DHT22;11743;51.228;22.498;2023-02-01T00:58:31;0.70;99.90
23149;DHT22;11743;51.228;22.498;2023-02-01T00:58:53;0.60;99.90
23149;DHT22;11743;51.228;22.498;2023-02-01T00:59:15;0.70;99.90
23149;DHT22;11743;51.228;22.498;2023-02-01T00:59:37;0.70;99.90
23149;DHT22;11743;51.228;22.498;2023-02-01T00:59:59;0.70;99.90
23149;DHT22;11743;51.228;22.498;2023-02-01T01:00:21;0.70;99.90
23149;DHT22;11743;51.228;22.498;2023-02-01T01:00:45;0.70;99.90
23149;DHT22;11743;51.228;22.498;2023-02-01T01:01:19;0.70;99.90
23149;DHT22;11743;51.228;22.498;2023-02-01T01:01:40;0.70;99.90
23149;DHT22;11743;51.228;22.498;2023-02-01T01:02:02;0.70;99.90
23149;DHT22;11743;51.228;22.498;2023-02-01T01:02:26;0.70;99.90
23149;DHT22;11743;51.228;22.498;2023-02-01T01:02:51;0.70;99.90
23149;DHT22;11743;51.228;22.498;2023-02-01T01:03:13;0.70;99.90
23149;DHT22;11743;51.228;22.498;2023-02-01T01:03:44;0.70;99.90
23149;DHT22;11743;51.228;22.498;2023-02-01T01:04:07;0.70;99.90
23149;DHT22;11743;51.228;22.498;2023-02-01T01:04:29;0.70;99.90
23149;DHT22;11743;51.228;22.498;2023-02-01T01:04:51;0.70;99.90
23149;DHT22;11743;51.228;22.498;2023-02-01T01:05:15;0.70;99.90
23149;DHT22;11743;51.228;22.498;2023-02-01T01:05:37;0.70;99.90
23149;DHT22;11743;51.228;22.498;2023-02-01T01:06:00;0.70;99.90
23149;DHT22;11743;51.228;22.498;2023-02-01T01:06:26;0.70;99.90
23149;DHT22;11743;51.228;22.498;2023-02-01T01:06:52;0.70;99.90
23149;DHT22;11743;51.228;22.498;2023-02-01T01:07:14;0.70;99.90
23149;DHT22;11743;51.228;22.498;2023-02-01T01:07:36;0.70;99.90
23149;DHT22;11743;51.228;22.498;2023-02-01T01:07:58;0.70;99.90
23149;DHT22;11743;51.228;22.498;2023-02-01T01:08:20;0.70;99.90
23149;DHT22;11743;51.228;22.498;2023-02-01T01:08:42;0.70;99.90
23149;DHT22;11743;51.228;22.498;2023-02-01T01:09:06;0.70;99.90
23149;DHT22;11743;51.228;22.498;2023-02-01T01:09:28;0.70;99.90
23149;DHT22;11743;51.228;22.498;2023-02-01T01:09:53;0.70;99.90
23149;DHT22;11743;51.228;22.498;2023-02-01T01:10:15;1.80;99.90
23149;DHT22;11743;51.228;22.498;2023-02-01T01:10:37;0.70;99.90
23149;DHT22;11743;51.228;22.498;2023-02-01T01:11:09;0.70;99.90
23149;DHT22;11743;51.228;22.498;2023-02-01T01:11:35;0.70;99.90
23149;DHT22;11743;51.228;22.498;2023-02-01T01:11:57;0.80;99.90
23149;DHT22;11743;51.228;22.498;2023-02-01T01:12:23;0.70;99.90
23149;DHT22;11743;51.228;22.498;2023-02-01T01:12:45;0.70;99.90
23149;DHT22;11743;51.228;22.498;2023-02-01T01:13:08;0.80;99.90
23149;DHT22;11743;51.228;22.498;2023-02-01T01:13:30;0.70;99.90
23149;DHT22;11743;51.228;22.498;2023-02-01T01:13:56;0.70;99.90
23149;DHT22;11743;51.228;22.498;2023-02-01T01:14:18;0.70;99.90
23149;DHT22;11743;51.228;22.498;2023-02-01T01:14:40;0.70;99.90
23149;DHT22;11743;51.228;22.498;2023-02-01T01:15:02;0.70;99.90
23149;DHT22;11743;51.228;22.498;2023-02-01T01:15:24;0.70;99.90
23149;DHT22;11743;51.228;22.498;2023-02-01T01:15:46;0.70;99.90
23149;DHT22;11743;51.228;22.498;2023-02-01T01:16:10;0.80;99.90
23149;DHT22;11743;51.228;22.498;2023-02-01T01:16:33;0.70;99.90
23149;DHT22;11743;51.228;22.498;2023-02-01T01:16:56;0.70;99.90
23149;DHT22;11743;51.228;22.498;2023-02-01T01:17:18;0.70;99.90
23149;DHT22;11743;51.228;22.498;2023-02-01T01:17:40;0.70;99.90
23149;DHT22;11743;51.228;22.498;2023-02-01T01:18:02;0.70;99.90
23149;DHT22;11743;51.228;22.498;2023-02-01T01:18:24;0.70;99.90
23149;DHT22;11743;51.228;22.498;2023-02-01T01:18:47;0.70;99.90
23149;DHT22;11743;51.228;22.498;2023-02-01T01:19:09;0.70;99.90
23149;DHT22;11743;51.228;22.498;2023-02-01T01:19:32;0.70;99.90
23149;DHT22;11743;51.228;22.498;2023-02-01T01:19:53;0.80;99.90
23149;DHT22;11743;51.228;22.498;2023-02-01T01:20:15;0.80;99.90
23149;DHT22;11743;51.228;22.498;2023-02-01T01:20:40;0.70;99.90
23149;DHT22;11743;51.228;22.498;2023-02-01T01:21:04;0.80;99.90
23149;DHT22;11743;51.228;22.498;2023-02-01T01:21:27;0.70;99.90
23149;DHT22;11743;51.228;22.498;2023-02-01T01:21:49;2.80;99.90
23149;DHT22;11743;51.228;22.498;2023-02-01T01:22:11;0.80;99.90
23149;DHT22;11743;51.228;22.498;2023-02-01T01:22:32;0.70;99.90
23149;DHT22;11743;51.228;22.498;2023-02-01T01:22:56;0.80;99.90
23149;DHT22;11743;51.228;22.498;2023-02-01T01:23:18;0.80;99.90
23149;DHT22;11743;51.228;22.498;2023-02-01T01:23:40;0.80;99.90
23149;DHT22;11743;51.228;22.498;2023-02-01T01:24:04;0.80;99.90
23149;DHT22;11743;51.228;22.498;2023-02-01T01:24:26;0.80;99.90
23149;DHT22;11743;51.228;22.498;2023-02-01T01:24:48;0.80;99.90
23149;DHT22;11743;51.228;22.498;2023-02-01T01:25:12;0.80;99.90
23149;DHT22;11743;51.228;22.498;2023-02-01T01:25:41;0.80;99.90
23149;DHT22;11743;51.228;22.498;2023-02-01T01:26:07;0.80;99.90
23149;DHT22;11743;51.228;22.498;2023-02-01T01:26:30;0.80;99.90
23149;DHT22;11743;51.228;22.498;2023-02-01T01:26:52;0.80;99.90
23149;DHT22;11743;51.228;22.498;2023-02-01T01:27:14;0.80;99.90
23149;DHT22;11743;51.228;22.498;2023-02-01T01:27:36;0.80;99.90
23149;DHT22;11743;51.228;22.498;2023-02-01T01:27:58;0.80;99.90
23149;DHT22;11743;51.228;22.498;2023-02-01T01:28:21;0.90;99.90
23149;DHT22;11743;51.228;22.498;2023-02-01T01:28:43;0.90;99.90
23149;DHT22;11743;51.228;22.498;2023-02-01T01:29:04;0.80;99.90
23149;DHT22;11743;51.228;22.498;2023-02-01T01:29:27;0.80;99.90
23149;DHT22;11743;51.228;22.498;2023-02-01T01:29:49;0.80;99.90
23149;DHT22;11743;51.228;22.498;2023-02-01T01:30:11;0.80;99.90
23149;DHT22;11743;51.228;22.498;2023-02-01T01:30:34;0.80;99.90
23149;DHT22;11743;51.228;22.498;2023-02-01T01:30:56;0.90;99.90
23149;DHT22;11743;51.228;22.498;2023-02-01T01:31:19;0.80;99.90
23149;DHT22;11743;51.228;22.498;2023-02-01T01:31:41;0.80;99.90
23149;DHT22;11743;51.228;22.498;2023-02-01T01:32:03;0.80;99.90
23149;DHT22;11743;51.228;22.498;2023-02-01T01:32:25;0.90;99.90
23149;DHT22;11743;51.228;22.498;2023-02-01T01:32:48;0.90;99.90
23149;DHT22;11743;51.228;22.498;2023-02-01T01:33:10;0.80;99.90
23149;DHT22;11743;51.228;22.498;2023-02-01T01:33:32;0.80;99.90
23149;DHT22;11743;51.228;22.498;2023-02-01T01:33:56;0.90;99.90
23149;DHT22;11743;51.228;22.498;2023-02-01T01:34:18;0.90;99.90
23149;DHT22;11743;51.228;22.498;2023-02-01T01:34:40;0.80;99.90
23149;DHT22;11743;51.228;22.498;2023-02-01T01:35:01;0.80;99.90
23149;DHT22;11743;51.228;22.498;2023-02-01T01:35:23;0.80;99.90
23149;DHT22;11743;51.228;22.498;2023-02-01T01:35:45;0.80;99.90
23149;DHT22;11743;51.228;22.498;2023-02-01T01:36:09;0.80;99.90
23149;DHT22;11743;51.228;22.498;2023-02-01T01:36:34;0.90;99.90
23149;DHT22;11743;51.228;22.498;2023-02-01T01:36:56;0.90;99.90
23149;DHT22;11743;51.228;22.498;2023-02-01T01:37:17;0.80;99.90
23149;DHT22;11743;51.228;22.498;2023-02-01T01:37:39;0.80;99.90
23149;DHT22;11743;51.228;22.498;2023-02-01T01:38:02;0.80;99.90
23149;DHT22;11743;51.228;22.498;2023-02-01T01:38:23;0.90;99.90
23149;DHT22;11743;51.228;22.498;2023-02-01T01:38:46;0.80;99.90
23149;DHT22;11743;51.228;22.498;2023-02-01T01:39:10;0.80;99.90
23149;DHT22;11743;51.228;22.498;2023-02-01T01:39:32;0.80;99.90
23149;DHT22;11743;51.228;22.498;2023-02-01T01:39:54;0.80;99.90
23149;DHT22;11743;51.228;22.498;2023-02-01T01:40:18;0.80;99.90
23149;DHT22;11743;51.228;22.498;2023-02-01T01:40:45;0.80;99.90
23149;DHT22;11743;51.228;22.498;2023-02-01T01:41:08;0.80;99.90
23149;DHT22;11743;51.228;22.498;2023-02-01T01:41:32;0.10;99.90
23149;DHT22;11743;51.228;22.498;2023-02-01T01:41:54;0.80;99.90
23149;DHT22;11743;51.228;22.498;2023-02-01T01:42:16;0.70;99.90
23149;DHT22;11743;51.228;22.498;2023-02-01T01:42:39;0.80;99.90
23149;DHT22;11743;51.228;22.498;2023-02-01T01:43:01;0.70;99.90
23149;DHT22;11743;51.228;22.498;2023-02-01T01:43:23;0.70;99.90
23149;DHT22;11743;51.228;22.498;2023-02-01T01:43:54;0.70;99.90
23149;DHT22;11743;51.228;22.498;2023-02-01T01:45:31;0.70;99.90
23149;DHT22;11743;51.228;22.498;2023-02-01T01:45:53;0.70;99.90
23149;DHT22;11743;51.228;22.498;2023-02-01T01:46:29;0.70;99.90
23149;DHT22;11743;51.228;22.498;2023-02-01T01:46:51;0.70;99.90
23149;DHT22;11743;51.228;22.498;2023-02-01T01:47:16;0.70;99.90
23149;DHT22;11743;51.228;22.498;2023-02-01T01:47:43;0.70;99.90
23149;DHT22;11743;51.228;22.498;2023-02-01T01:48:25;0.70;99.90
23149;DHT22;11743;51.228;22.498;2023-02-01T01:49:28;0.80;99.90
23149;DHT22;11743;51.228;22.498;2023-02-01T01:49:51;0.70;99.90
23149;DHT22;11743;51.228;22.498;2023-02-01T01:50:16;0.80;99.90
23149;DHT22;11743;51.228;22.498;2023-02-01T01:50:43;0.80;99.90
23149;DHT22;11743;51.228;22.498;2023-02-01T01:51:09;0.80;99.90
23149;DHT22;11743;51.228;22.498;2023-02-01T01:51:34;0.80;99.90
23149;DHT22;11743;51.228;22.498;2023-02-01T01:52:00;0.80;99.90
23149;DHT22;11743;51.228;22.498;2023-02-01T01:52:23;0.80;99.90
23149;DHT22;11743;51.228;22.498;2023-02-01T01:52:49;0.80;99.90
23149;DHT22;11743;51.228;22.498;2023-02-01T01:53:15;0.80;99.90
23149;DHT22;11743;51.228;22.498;2023-02-01T01:53:48;0.80;99.90
23149;DHT22;11743;51.228;22.498;2023-02-01T01:54:17;0.80;99.90
23149;DHT22;11743;51.228;22.498;2023-02-01T01:54:43;0.80;99.90
23149;DHT22;11743;51.228;22.498;2023-02-01T01:55:07;0.80;99.90
23149;DHT22;11743;51.228;22.498;2023-02-01T01:55:32;0.80;99.90
23149;DHT22;11743;51.228;22.498;2023-02-01T01:55:57;0.80;99.90
23149;DHT22;11743;51.228;22.498;2023-02-01T01:56:19;0.80;99.90
23149;DHT22;11743;51.228;22.498;2023-02-01T01:56:41;0.80;99.90
23149;DHT22;11743;51.228;22.498;2023-02-01T01:57:08;0.80;99.90
23149;DHT22;11743;51.228;22.498;2023-02-01T01:57:37;0.80;99.90
23149;DHT22;11743;51.228;22.498;2023-02-01T01:58:08;0.80;99.90
23149;DHT22;11743;51.228;22.498;2023-02-01T01:58:34;0.80;99.90
23149;DHT22;11743;51.228;22.498;2023-02-01T01:58:56;0.80;99.90
23149;DHT22;11743;51.228;22.498;2023-02-01T01:59:20;0.80;99.90
23149;DHT22;11743;51.228;22.498;2023-02-01T01:59:48;0.80;99.90
23149;DHT22;11743;51.228;22.498;2023-02-01T02:00:16;0.90;99.90
23149;DHT22;11743;51.228;22.498;2023-02-01T02:00:39;0.80;99.90
23149;DHT22;11743;51.228;22.498;2023-02-01T02:01:01;0.80;99.90
23149;DHT22;11743;51.228;22.498;2023-02-01T02:01:23;0.80;99.90
23149;DHT22;11743;51.228;22.498;2023-02-01T02:01:45;0.90;99.90
23149;DHT22;11743;51.228;22.498;2023-02-01T02:02:07;0.90;99.90
23149;DHT22;11743;51.228;22.498;2023-02-01T02:02:29;0.90;99.90
23149;DHT22;11743;51.228;22.498;2023-02-01T02:03:00;0.90;99.90
23149;DHT22;11743;51.228;22.498;2023-02-01T02:03:27;0.90;99.90
23149;DHT22;11743;51.228;22.498;2023-02-01T02:03:52;0.90;99.90
23149;DHT22;11743;51.228;22.498;2023-02-01T02:04:15;0.90;99.90
23149;DHT22;11743;51.228;22.498;2023-02-01T02:04:37;1.00;99.90
23149;DHT22;11743;51.228;22.498;2023-02-01T02:04:59;0.90;99.90
23149;DHT22;11743;51.228;22.498;2023-02-01T02:05:21;0.90;99.90
23149;DHT22;11743;51.228;22.498;2023-02-01T02:05:44;1.00;99.90
23149;DHT22;11743;51.228;22.498;2023-02-01T02:06:35;1.00;99.90
23149;DHT22;11743;51.228;22.498;2023-02-01T02:07:03;1.00;99.90
23149;DHT22;11743;51.228;22.498;2023-02-01T02:07:31;1.00;99.90
23149;DHT22;11743;51.228;22.498;2023-02-01T02:07:58;1.00;99.90
23149;DHT22;11743;51.228;22.498;2023-02-01T02:08:26;1.00;99.90
23149;DHT22;11743;51.228;22.498;2023-02-01T02:08:48;1.00;99.90
23149;DHT22;11743;51.228;22.498;2023-02-01T02:09:09;1.00;99.90
23149;DHT22;11743;51.228;22.498;2023-02-01T02:09:32;1.10;99.90
23149;DHT22;11743;51.228;22.498;2023-02-01T02:09:54;1.10;99.90
23149;DHT22;11743;51.228;22.498;2023-02-01T02:10:21;1.10;99.90
23149;DHT22;11743;51.228;22.498;2023-02-01T02:11:03;1.10;99.90
23149;DHT22;11743;51.228;22.498;2023-02-01T02:11:26;1.10;99.90
23149;DHT22;11743;51.228;22.498;2023-02-01T02:11:48;1.10;99.90
23149;DHT22;11743;51.228;22.498;2023-02-01T02:12:10;1.10;99.90
23149;DHT22;11743;51.228;22.498;2023-02-01T02:12:33;1.10;99.90
23149;DHT22;11743;51.228;22.498;2023-02-01T02:12:55;1.10;99.90
23149;DHT22;11743;51.228;22.498;2023-02-01T02:13:18;1.10;99.90
23149;DHT22;11743;51.228;22.498;2023-02-01T02:13:42;1.10;99.90
23149;DHT22;11743;51.228;22.498;2023-02-01T02:14:05;1.10;99.90
23149;DHT22;11743;51.228;22.498;2023-02-01T02:14:30;1.10;99.90
23149;DHT22;11743;51.228;22.498;2023-02-01T02:14:53;1.10;99.90
23149;DHT22;11743;51.228;22.498;2023-02-01T02:15:16;1.10;99.90
23149;DHT22;11743;51.228;22.498;2023-02-01T02:15:43;1.10;99.90
23149;DHT22;11743;51.228;22.498;2023-02-01T02:18:06;1.20;99.90
23149;DHT22;11743;51.228;22.498;2023-02-01T02:24:49;1.20;99.90
23149;DHT22;11743;51.228;22.498;2023-02-01T02:27:17;1.20;99.90
23149;DHT22;11743;51.228;22.498;2023-02-01T02:28:32;1.20;99.90
23149;DHT22;11743;51.228;22.498;2023-02-01T02:34:59;1.20;99.90
23149;DHT22;11743;51.228;22.498;2023-02-01T02:37:54;1.30;99.90
23149;DHT22;11743;51.228;22.498;2023-02-01T02:38:32;1.30;99.90
23149;DHT22;11743;51.228;22.498;2023-02-01T02:39:15;1.30;99.90
23149;DHT22;11743;51.228;22.498;2023-02-01T02:40:57;1.30;99.90
23149;DHT22;11743;51.228;22.498;2023-02-01T02:42:32;1.20;99.90
23149;DHT22;11743;51.228;22.498;2023-02-01T02:43:31;1.20;99.90
23149;DHT22;11743;51.228;22.498;2023-02-01T02:46:59;1.20;99.90
23149;DHT22;11743;51.228;22.498;2023-02-01T02:48:17;1.20;99.90
23149;DHT22;11743;51.228;22.498;2023-02-01T02:49:18;1.20;99.90
23149;DHT22;11743;51.228;22.498;2023-02-01T02:50:02;1.20;99.90
23149;DHT22;11743;51.228;22.498;2023-02-01T02:50:59;1.30;99.90
23149;DHT22;11743;51.228;22.498;2023-02-01T02:51:45;1.30;99.90
23149;DHT22;11743;51.228;22.498;2023-02-01T02:52:27;1.20;99.90
23149;DHT22;11743;51.228;22.498;2023-02-01T02:53:18;1.30;99.90
23149;DHT22;11743;51.228;22.498;2023-02-01T02:54:11;1.30;99.90
23149;DHT22;11743;51.228;22.498;2023-02-01T02:54:54;1.30;99.90
23149;DHT22;11743;51.228;22.498;2023-02-01T02:55:17;1.30;99.90
23149;DHT22;11743;51.228;22.498;2023-02-01T02:55:40;1.30;99.90
23149;DHT22;11743;51.228;22.498;2023-02-01T02:56:05;1.20;99.90
23149;DHT22;11743;51.228;22.498;2023-02-01T02:56:47;1.30;99.90
23149;DHT22;11743;51.228;22.498;2023-02-01T02:57:32;1.30;99.90
23149;DHT22;11743;51.228;22.498;2023-02-01T02:58:17;2.00;99.90
23149;DHT22;11743;51.228;22.498;2023-02-01T02:58:59;1.30;99.90
23149;DHT22;11743;51.228;22.498;2023-02-01T02:59:40;1.30;99.90
23149;DHT22;11743;51.228;22.498;2023-02-01T03:00:28;1.20;99.90
23149;DHT22;11743;51.228;22.498;2023-02-01T03:01:10;1.30;99.90
23149;DHT22;11743;51.228;22.498;2023-02-01T03:01:51;1.20;99.90
23149;DHT22;11743;51.228;22.498;2023-02-01T03:02:33;1.20;99.90
23149;DHT22;11743;51.228;22.498;2023-02-01T03:03:14;1.20;99.90
23149;DHT22;11743;51.228;22.498;2023-02-01T03:03:55;1.30;99.90
23149;DHT22;11743;51.228;22.498;2023-02-01T03:04:39;1.30;99.90